createdAt,value
2018-01-13T00:00:45.570Z,24.50
2018-01-13T00:03:16.822Z,24.50
2018-01-13T00:05:47.251Z,24.50
2018-01-13T00:08:18.095Z,24.50
2018-01-13T00:10:49.294Z,24.50
2018-01-13T00:13:19.747Z,24.40
2018-01-13T00:15:50.217Z,24.50
2018-01-13T00:18:20.692Z,24.50
2018-01-13T00:20:51.467Z,24.50
2018-01-13T00:23:23.243Z,24.50
2018-01-13T00:25:53.895Z,24.50
2018-01-13T00:28:24.334Z,24.50
2018-01-13T00:30:54.793Z,24.50
2018-01-13T00:33:25.346Z,24.60
2018-01-13T00:35:55.814Z,24.50
2018-01-13T00:38:26.679Z,24.60
2018-01-13T00:40:57.272Z,24.60
2018-01-13T00:43:27.991Z,24.70
2018-01-13T00:45:58.465Z,24.70
2018-01-13T00:48:28.897Z,24.70
2018-01-13T00:50:59.773Z,24.80
2018-01-13T00:53:30.245Z,24.80
2018-01-13T00:56:00.962Z,24.80
2018-01-13T00:58:31.472Z,24.90
2018-01-13T01:01:01.950Z,24.90
2018-01-13T01:03:32.732Z,24.90
2018-01-13T01:06:03.183Z,25.00
2018-01-13T01:08:34.046Z,25.00
2018-01-13T01:11:06.204Z,25.10
2018-01-13T01:13:36.666Z,25.00
2018-01-13T01:16:07.883Z,25.10
2018-01-13T01:18:38.345Z,25.20
2018-01-13T01:21:08.809Z,25.20
2018-01-13T01:23:39.302Z,25.20
2018-01-13T01:26:09.954Z,25.30
2018-01-13T01:28:40.403Z,25.30
2018-01-13T01:31:10.851Z,25.30
2018-01-13T01:33:41.303Z,25.40
2018-01-13T01:36:12.523Z,25.40
2018-01-13T01:38:43.122Z,25.40
2018-01-13T01:41:13.577Z,25.40
2018-01-13T01:43:44.314Z,25.40
2018-01-13T01:46:14.746Z,25.50
2018-01-13T01:48:45.221Z,25.60
2018-01-13T01:51:15.675Z,25.60
2018-01-13T01:53:46.142Z,25.60
2018-01-13T01:56:17.458Z,25.70
2018-01-13T01:58:47.925Z,25.70
2018-01-13T02:01:18.379Z,25.80
2018-01-13T02:03:48.825Z,25.80
2018-01-13T02:06:19.284Z,25.80
2018-01-13T02:08:49.739Z,25.80
2018-01-13T02:11:20.199Z,25.80
2018-01-13T02:13:50.971Z,25.90
2018-01-13T02:16:21.450Z,25.90
2018-01-13T02:18:51.911Z,25.90
2018-01-13T02:21:22.368Z,26.00
2018-01-13T02:23:53.582Z,26.00
2018-01-13T02:26:25.999Z,26.00
2018-01-13T02:28:56.471Z,26.10
2018-01-13T02:31:26.975Z,26.20
2018-01-13T02:33:57.423Z,26.20
2018-01-13T02:36:27.846Z,26.30
2018-01-13T02:38:58.332Z,26.30
2018-01-13T02:41:29.092Z,26.40
2018-01-13T02:43:59.866Z,26.40
2018-01-13T02:46:30.326Z,26.50
2018-01-13T02:49:00.806Z,26.50
2018-01-13T02:51:31.250Z,26.60
2018-01-13T02:54:01.666Z,26.70
2018-01-13T02:56:32.459Z,26.80
2018-01-13T02:59:02.886Z,26.80
2018-01-13T03:01:33.535Z,26.90
2018-01-13T03:04:03.954Z,27.00
2018-01-13T03:06:34.410Z,27.00
2018-01-13T03:09:04.915Z,27.10
2018-01-13T03:11:35.379Z,27.80
2018-01-13T03:14:06.274Z,27.20
2018-01-13T03:16:36.714Z,27.20
2018-01-13T03:19:07.171Z,27.20
2018-01-13T03:21:37.628Z,27.40
2018-01-13T03:24:08.090Z,27.40
2018-01-13T03:26:38.854Z,27.40
2018-01-13T03:29:09.351Z,27.40
2018-01-13T03:31:40.205Z,27.40
2018-01-13T03:34:10.630Z,27.40
2018-01-13T03:36:41.112Z,27.40
2018-01-13T03:39:11.579Z,27.50
2018-01-13T03:41:42.046Z,27.50
2018-01-13T03:44:13.787Z,27.60
2018-01-13T03:46:44.254Z,27.60
2018-01-13T03:49:14.752Z,27.60
2018-01-13T03:51:45.208Z,27.60
2018-01-13T03:54:25.142Z,27.60
2018-01-13T03:59:31.067Z,27.60
2018-01-13T04:02:01.873Z,27.60
2018-01-13T04:04:32.664Z,27.60
2018-01-13T04:07:03.114Z,27.60
2018-01-13T04:09:34.307Z,27.60
2018-01-13T04:12:04.773Z,27.60
2018-01-13T04:14:36.416Z,27.60
2018-01-13T04:17:06.911Z,27.60
2018-01-13T04:19:37.911Z,27.60
2018-01-13T04:22:09.667Z,27.70
2018-01-13T04:24:40.905Z,27.80
2018-01-13T04:27:12.126Z,27.80
2018-01-13T04:29:42.582Z,27.80
2018-01-13T04:32:14.115Z,27.90
2018-01-13T04:34:44.579Z,27.90
2018-01-13T04:37:15.019Z,27.90
2018-01-13T04:39:45.455Z,27.90
2018-01-13T04:42:15.943Z,27.90
2018-01-13T04:44:46.412Z,27.90
2018-01-13T04:47:16.878Z,27.90
2018-01-13T04:49:48.635Z,27.90
2018-01-13T04:52:19.114Z,27.90
2018-01-13T04:54:50.186Z,27.90
2018-01-13T04:57:20.642Z,27.90
2018-01-13T04:59:51.879Z,28.00
2018-01-13T05:02:22.633Z,28.00
2018-01-13T05:04:53.909Z,28.00
2018-01-13T05:07:24.898Z,28.00
2018-01-13T05:09:55.359Z,28.00
2018-01-13T05:12:25.798Z,28.00
2018-01-13T05:14:56.300Z,28.00
2018-01-13T05:17:26.816Z,28.00
2018-01-13T05:19:58.163Z,28.00
2018-01-13T05:22:29.373Z,28.00
2018-01-13T05:24:59.891Z,28.00
2018-01-13T05:27:30.311Z,28.00
2018-01-13T05:30:00.929Z,28.10
2018-01-13T05:32:32.350Z,28.10
2018-01-13T05:35:02.946Z,28.10
2018-01-13T05:37:33.622Z,28.10
2018-01-13T05:40:04.895Z,28.20
2018-01-13T05:42:35.432Z,28.10
2018-01-13T05:45:06.208Z,28.20
2018-01-13T05:47:37.481Z,28.10
2018-01-13T05:50:08.552Z,28.10
2018-01-13T05:52:39.026Z,28.10
2018-01-13T05:55:10.281Z,28.10
2018-01-13T05:57:41.847Z,28.10
2018-01-13T06:00:13.095Z,28.10
2018-01-13T06:02:43.695Z,28.10
2018-01-13T06:05:14.211Z,28.00
2018-01-13T06:07:45.263Z,28.00
2018-01-13T06:10:15.768Z,28.00
2018-01-13T06:12:46.275Z,28.00
2018-01-13T06:15:16.711Z,28.00
2018-01-13T06:17:47.166Z,27.90
2018-01-13T06:20:17.926Z,28.00
2018-01-13T06:22:49.141Z,28.00
2018-01-13T06:25:19.778Z,28.00
2018-01-13T06:27:50.260Z,28.00
2018-01-13T06:30:20.962Z,28.00
2018-01-13T06:32:52.158Z,28.00
2018-01-13T06:35:22.685Z,28.00
2018-01-13T06:37:53.386Z,28.10
2018-01-13T06:40:23.882Z,28.00
2018-01-13T06:42:54.342Z,28.10
2018-01-13T06:45:24.791Z,28.10
2018-01-13T06:47:55.245Z,28.10
2018-01-13T06:50:25.927Z,28.20
2018-01-13T06:52:56.371Z,28.20
2018-01-13T06:55:26.985Z,28.20
2018-01-13T06:57:57.815Z,28.20
2018-01-13T07:00:28.247Z,28.20
2018-01-13T07:02:58.733Z,28.30
2018-01-13T07:05:29.988Z,28.30
2018-01-13T07:08:01.598Z,28.30
2018-01-13T07:10:32.058Z,28.30
2018-01-13T07:13:02.522Z,28.30
2018-01-13T07:15:32.975Z,28.30
2018-01-13T07:18:03.500Z,28.30
2018-01-13T07:20:34.099Z,28.30
2018-01-13T07:23:05.352Z,28.30
2018-01-13T07:25:36.254Z,28.20
2018-01-13T07:28:06.773Z,28.30
2018-01-13T07:30:37.220Z,28.20
2018-01-13T07:33:07.655Z,28.30
2018-01-13T07:35:38.212Z,28.30
2018-01-13T07:38:09.007Z,28.20
2018-01-13T07:40:39.463Z,28.20
2018-01-13T07:43:10.276Z,28.20
2018-01-13T07:45:40.819Z,28.20
2018-01-13T07:48:12.051Z,28.20
2018-01-13T07:50:42.521Z,28.20
2018-01-13T07:53:12.962Z,28.20
2018-01-13T07:55:43.658Z,28.20
2018-01-13T07:58:14.923Z,28.20
2018-01-13T08:00:45.370Z,28.20
2018-01-13T08:03:15.829Z,28.20
2018-01-13T08:05:46.548Z,28.20
2018-01-13T08:08:17.227Z,28.20
2018-01-13T08:10:47.704Z,28.20
2018-01-13T08:13:18.485Z,28.10
2018-01-13T08:15:48.968Z,28.10
2018-01-13T08:18:19.418Z,28.10
2018-01-13T08:20:49.887Z,28.10
2018-01-13T08:23:20.404Z,28.10
2018-01-13T08:25:51.895Z,28.10
2018-01-13T08:28:23.747Z,28.10
2018-01-13T08:30:54.666Z,28.10
2018-01-13T08:33:25.182Z,28.10
2018-01-13T08:35:55.646Z,28.10
2018-01-13T08:38:26.410Z,28.00
2018-01-13T08:40:56.851Z,28.00
2018-01-13T08:43:28.416Z,28.00
2018-01-13T08:45:58.866Z,28.00
2018-01-13T08:48:30.212Z,28.00
2018-01-13T08:51:00.660Z,27.90
2018-01-13T08:53:31.164Z,27.90
2018-01-13T08:56:01.743Z,27.90
2018-01-13T08:58:32.474Z,27.80
2018-01-13T09:01:03.376Z,27.80
2018-01-13T09:03:34.497Z,27.80
2018-01-13T09:06:05.123Z,27.80
2018-01-13T09:08:35.620Z,27.80
2018-01-13T09:11:06.082Z,27.80
2018-01-13T09:13:36.635Z,27.80
2018-01-13T09:16:07.138Z,27.80
2018-01-13T09:18:37.712Z,27.70
2018-01-13T09:21:08.215Z,27.70
2018-01-13T09:23:38.714Z,27.70
2018-01-13T09:26:10.082Z,27.70
2018-01-13T09:28:40.568Z,27.70
2018-01-13T09:31:11.459Z,27.70
2018-01-13T09:33:41.912Z,27.70
2018-01-13T09:36:12.390Z,27.70
2018-01-13T09:38:42.851Z,27.60
2018-01-13T09:41:13.340Z,27.60
2018-01-13T09:43:44.198Z,27.60
2018-01-13T09:46:14.646Z,27.60
2018-01-13T09:48:45.603Z,27.60
2018-01-13T09:51:16.874Z,27.50
2018-01-13T09:53:48.104Z,27.50
2018-01-13T09:56:18.887Z,27.50
2018-01-13T09:58:49.331Z,27.50
2018-01-13T10:01:20.278Z,27.40
2018-01-13T10:03:50.830Z,27.40
2018-01-13T10:06:21.291Z,27.40
2018-01-13T10:08:52.828Z,27.30
2018-01-13T10:11:24.044Z,27.30
2018-01-13T10:13:55.006Z,27.30
2018-01-13T10:16:25.486Z,27.30
2018-01-13T10:18:56.414Z,27.30
2018-01-13T10:21:26.887Z,27.20
2018-01-13T10:23:58.304Z,27.20
2018-01-13T10:26:28.786Z,27.10
2018-01-13T10:29:00.034Z,27.10
2018-01-13T10:31:31.638Z,27.10
2018-01-13T10:34:02.100Z,27.10
2018-01-13T10:36:32.637Z,27.00
2018-01-13T10:39:03.859Z,27.00
2018-01-13T10:41:34.315Z,27.00
2018-01-13T10:44:05.511Z,27.00
2018-01-13T10:46:36.938Z,26.90
2018-01-13T10:49:11.183Z,27.00
2018-01-13T10:51:47.526Z,26.90
2018-01-13T10:54:18.032Z,26.90
2018-01-13T10:56:48.498Z,26.90
2018-01-13T10:59:18.955Z,26.80
2018-01-13T11:01:49.431Z,26.80
2018-01-13T11:04:19.898Z,26.80
2018-01-13T11:06:50.650Z,26.80
2018-01-13T11:09:21.108Z,26.70
2018-01-13T11:11:51.883Z,26.70
2018-01-13T11:14:22.335Z,26.70
2018-01-13T11:16:52.939Z,26.70
2018-01-13T11:19:23.679Z,26.70
2018-01-13T11:21:54.155Z,26.60
2018-01-13T11:24:24.667Z,26.60
2018-01-13T11:26:55.974Z,26.50
2018-01-13T11:29:26.427Z,26.50
2018-01-13T11:31:56.875Z,26.50
2018-01-13T11:34:28.099Z,26.40
2018-01-13T11:36:58.958Z,26.40
2018-01-13T11:39:30.186Z,26.20
2018-01-13T11:42:00.658Z,26.20
2018-01-13T11:44:31.132Z,26.10
2018-01-13T11:47:01.582Z,26.10
2018-01-13T11:49:33.180Z,26.00
2018-01-13T11:52:03.660Z,26.00
2018-01-13T11:54:34.907Z,25.90
2018-01-13T11:57:06.163Z,25.90
2018-01-13T11:59:36.623Z,25.90
2018-01-13T12:02:08.461Z,25.90
2018-01-13T12:04:38.910Z,25.90
2018-01-13T12:07:09.712Z,25.90
2018-01-13T12:09:40.191Z,25.90
2018-01-13T12:12:10.696Z,25.80
2018-01-13T12:14:41.222Z,25.80
2018-01-13T12:17:11.714Z,25.80
2018-01-13T12:19:43.405Z,25.80
2018-01-13T12:22:13.884Z,25.80
2018-01-13T12:24:44.683Z,25.80
2018-01-13T12:27:15.135Z,25.70
2018-01-13T12:29:45.600Z,25.80
2018-01-13T12:32:16.031Z,25.80
2018-01-13T12:34:46.471Z,25.80
2018-01-13T12:37:17.246Z,25.80
2018-01-13T12:39:47.710Z,25.80
2018-01-13T12:42:18.935Z,25.80
2018-01-13T12:44:50.210Z,25.80
2018-01-13T12:47:20.676Z,25.80
2018-01-13T12:49:51.499Z,25.80
2018-01-13T12:52:21.966Z,25.80
2018-01-13T12:54:52.691Z,25.80
2018-01-13T12:57:23.255Z,25.80
2018-01-13T12:59:53.757Z,25.70
2018-01-13T13:02:24.418Z,25.70
2018-01-13T13:04:55.086Z,25.70
2018-01-13T13:07:25.955Z,25.70
2018-01-13T13:09:56.727Z,25.70
2018-01-13T13:12:27.244Z,26.20
2018-01-13T13:14:58.455Z,25.60
2018-01-13T13:17:28.946Z,25.60
2018-01-13T13:19:59.387Z,25.60
2018-01-13T13:22:29.864Z,25.50
2018-01-13T13:25:01.519Z,25.50
2018-01-13T13:27:32.802Z,25.40
2018-01-13T13:30:03.262Z,25.40
2018-01-13T13:32:33.766Z,25.40
2018-01-13T13:35:05.256Z,25.40
2018-01-13T13:37:36.245Z,25.30
2018-01-13T13:40:07.715Z,25.30
2018-01-13T13:42:38.587Z,25.30
2018-01-13T13:45:10.271Z,25.30
2018-01-13T13:47:43.039Z,25.20
2018-01-13T13:50:15.051Z,25.10
2018-01-13T13:52:45.527Z,25.20
2018-01-13T13:55:16.871Z,25.10
2018-01-13T13:57:48.128Z,25.10
2018-01-13T14:00:20.151Z,25.00
2018-01-13T14:02:51.207Z,25.00
2018-01-13T14:08:00.732Z,24.30
2018-01-13T14:10:34.816Z,24.90
2018-01-13T14:13:07.107Z,24.90
2018-01-13T14:15:37.549Z,24.90
2018-01-13T14:18:08.047Z,24.90
2018-01-13T14:20:39.440Z,24.90
2018-01-13T14:23:09.950Z,24.80
2018-01-13T14:25:42.249Z,24.80
2018-01-13T14:28:12.750Z,24.80
2018-01-13T14:30:44.095Z,24.80
2018-01-13T14:33:17.314Z,24.80
2018-01-13T14:35:47.935Z,24.80
2018-01-13T14:38:18.788Z,24.80
2018-01-13T14:40:50.478Z,24.80
2018-01-13T14:43:21.987Z,24.80
2018-01-13T14:45:52.461Z,24.80
2018-01-13T14:48:22.983Z,24.80
2018-01-13T14:50:54.637Z,24.80
2018-01-13T14:53:25.074Z,24.80
2018-01-13T14:55:56.914Z,24.80
2018-01-13T14:58:29.533Z,24.80
2018-01-13T15:01:00.030Z,24.70
2018-01-13T15:03:30.512Z,24.80
2018-01-13T15:06:00.955Z,24.80
2018-01-13T15:08:31.786Z,24.80
2018-01-13T15:11:02.273Z,24.80
2018-01-13T15:13:33.971Z,24.80
2018-01-13T15:16:04.436Z,24.80
2018-01-13T15:18:34.920Z,24.80
2018-01-13T15:21:05.462Z,24.80
2018-01-13T15:23:36.692Z,24.80
2018-01-13T15:26:08.084Z,24.80
2018-01-13T15:28:38.543Z,24.70
2018-01-13T15:31:09.058Z,24.70
2018-01-13T15:33:39.694Z,24.70
2018-01-13T15:36:10.194Z,24.70
2018-01-13T15:38:43.604Z,24.70
2018-01-13T15:41:14.102Z,24.70
2018-01-13T15:43:45.723Z,24.60
2018-01-13T15:46:16.252Z,24.60
2018-01-13T15:48:47.611Z,24.60
2018-01-13T15:51:18.106Z,24.60
2018-01-13T15:53:48.648Z,24.60
2018-01-13T15:56:19.446Z,24.60
2018-01-13T15:58:49.929Z,24.60
2018-01-13T16:01:20.619Z,24.60
2018-01-13T16:03:51.043Z,24.60
2018-01-13T16:06:21.554Z,24.60
2018-01-13T16:11:26.977Z,24.60
2018-01-13T16:13:59.375Z,24.60
2018-01-13T16:16:30.611Z,24.60
2018-01-13T16:19:01.872Z,24.50
2018-01-13T16:21:33.123Z,24.50
2018-01-13T16:24:03.612Z,24.50
2018-01-13T16:26:34.237Z,24.50
2018-01-13T16:29:04.679Z,24.50
2018-01-13T16:31:35.778Z,24.50
2018-01-13T16:34:06.342Z,24.50
2018-01-13T16:36:37.603Z,24.50
2018-01-13T16:39:08.841Z,24.50
2018-01-13T16:41:39.300Z,24.50
2018-01-13T16:44:09.895Z,24.50
2018-01-13T16:46:40.379Z,24.50
2018-01-13T16:49:10.866Z,24.50
2018-01-13T16:51:42.118Z,24.50
2018-01-13T16:54:13.425Z,24.50
2018-01-13T16:56:43.893Z,24.50
2018-01-13T16:59:15.119Z,24.50
2018-01-13T17:01:46.037Z,24.50
2018-01-13T17:04:16.557Z,24.50
2018-01-13T17:06:46.982Z,24.50
2018-01-13T17:09:17.523Z,24.50
2018-01-13T17:11:48.613Z,24.50
2018-01-13T17:14:19.500Z,24.50
2018-01-13T17:16:49.930Z,24.40
2018-01-13T17:19:20.374Z,24.40
2018-01-13T17:21:50.834Z,24.50
2018-01-13T17:24:21.593Z,24.50
2018-01-13T17:26:52.365Z,24.50
2018-01-13T17:29:22.791Z,24.50
2018-01-13T17:31:53.647Z,24.50
2018-01-13T17:34:24.830Z,24.50
2018-01-13T17:36:55.323Z,24.50
2018-01-13T17:39:26.558Z,24.40
2018-01-13T17:41:57.793Z,24.40
2018-01-13T17:44:28.590Z,24.40
2018-01-13T17:46:59.033Z,24.40
2018-01-13T17:49:29.477Z,24.40
2018-01-13T17:52:00.085Z,24.40
2018-01-13T17:54:30.555Z,24.40
2018-01-13T17:57:01.766Z,24.40
2018-01-13T17:59:32.241Z,24.40
2018-01-13T18:02:03.858Z,24.40
2018-01-13T18:04:34.312Z,24.40
2018-01-13T18:07:05.494Z,24.30
2018-01-13T18:09:35.987Z,24.30
2018-01-13T18:12:07.206Z,24.30
2018-01-13T18:14:38.037Z,24.30
2018-01-13T18:17:08.474Z,24.30
2018-01-13T18:19:39.182Z,24.30
2018-01-13T18:22:09.648Z,24.30
2018-01-13T18:24:40.894Z,24.20
2018-01-13T18:27:12.103Z,24.20
2018-01-13T18:29:42.537Z,24.20
2018-01-13T18:32:13.742Z,24.20
2018-01-13T18:34:44.170Z,24.20
2018-01-13T18:37:14.595Z,24.10
2018-01-13T18:39:45.046Z,24.10
2018-01-13T18:42:15.659Z,24.10
2018-01-13T18:44:46.903Z,24.10
2018-01-13T18:47:17.325Z,24.10
2018-01-13T18:49:47.990Z,24.10
2018-01-13T18:52:18.402Z,24.10
2018-01-13T18:54:48.833Z,24.00
2018-01-13T18:57:19.317Z,24.00
2018-01-13T18:59:49.880Z,24.10
2018-01-13T19:02:20.902Z,24.10
2018-01-13T19:04:51.379Z,24.10
2018-01-13T19:07:22.104Z,24.10
2018-01-13T19:09:52.551Z,24.10
2018-01-13T19:12:22.962Z,24.10
2018-01-13T19:14:53.766Z,24.10
2018-01-13T19:17:24.965Z,24.10
2018-01-13T19:19:56.737Z,24.10
2018-01-13T19:22:27.936Z,24.10
2018-01-13T19:24:58.370Z,24.10
2018-01-13T19:27:28.821Z,24.20
2018-01-13T19:30:00.109Z,24.20
2018-01-13T19:32:31.024Z,24.20
2018-01-13T19:35:01.480Z,24.20
2018-01-13T19:37:32.984Z,24.20
2018-01-13T19:40:04.244Z,24.20
2018-01-13T19:42:35.308Z,24.20
2018-01-13T19:45:05.788Z,24.20
2018-01-13T19:47:37.062Z,24.10
2018-01-13T19:50:08.302Z,24.10
2018-01-13T19:52:38.747Z,24.00
2018-01-13T19:55:09.237Z,24.00
2018-01-13T19:57:39.730Z,24.00
2018-01-13T20:00:10.284Z,23.90
2018-01-13T20:02:40.811Z,23.90
2018-01-13T20:05:11.298Z,23.90
2018-01-13T20:07:42.860Z,23.90
2018-01-13T20:10:13.462Z,23.90
2018-01-13T20:12:43.911Z,23.90
2018-01-13T20:15:14.382Z,23.80
2018-01-13T20:17:44.848Z,23.80
2018-01-13T20:20:15.643Z,23.80
2018-01-13T20:22:46.171Z,23.80
2018-01-13T20:25:16.638Z,23.80
2018-01-13T20:27:47.102Z,23.80
2018-01-13T20:30:17.566Z,23.80
2018-01-13T20:32:49.211Z,23.80
2018-01-13T20:35:19.680Z,23.80
2018-01-13T20:37:50.363Z,23.80
2018-01-13T20:40:20.840Z,23.80
2018-01-13T20:42:51.319Z,23.80
2018-01-13T20:45:21.780Z,23.80
2018-01-13T20:47:52.248Z,23.80
2018-01-13T20:50:22.947Z,23.90
2018-01-13T20:52:53.439Z,23.90
2018-01-13T20:55:24.310Z,23.90
2018-01-13T20:57:55.559Z,24.00
2018-01-13T21:00:26.035Z,24.00
2018-01-13T21:02:56.484Z,24.00
2018-01-13T21:05:27.751Z,24.10
2018-01-13T21:07:58.582Z,24.10
2018-01-13T21:10:29.056Z,24.10
2018-01-13T21:12:59.520Z,24.20
2018-01-13T21:15:30.772Z,24.20
2018-01-13T21:18:02.015Z,24.20
2018-01-13T21:20:33.660Z,24.20
2018-01-13T21:23:05.504Z,24.20
2018-01-13T21:25:36.460Z,24.20
2018-01-13T21:28:07.847Z,24.30
2018-01-13T21:30:38.346Z,24.30
2018-01-13T21:33:09.577Z,24.30
2018-01-13T21:35:40.054Z,24.20
2018-01-13T21:38:10.843Z,24.30
2018-01-13T21:40:41.311Z,24.30
2018-01-13T21:43:11.811Z,24.30
2018-01-13T21:45:43.035Z,24.30
2018-01-13T21:48:13.496Z,24.30
2018-01-13T21:50:44.347Z,24.30
2018-01-13T21:53:14.807Z,24.30
2018-01-13T21:55:45.699Z,24.30
2018-01-13T21:58:16.135Z,24.40
2018-01-13T22:00:46.607Z,24.40
2018-01-13T22:03:17.093Z,24.50
2018-01-13T22:05:47.586Z,24.50
2018-01-13T22:08:19.103Z,24.50
2018-01-13T22:10:49.578Z,24.60
2018-01-13T22:13:20.810Z,24.60
2018-01-13T22:15:52.040Z,24.70
2018-01-13T22:18:23.292Z,24.70
2018-01-13T22:20:54.445Z,24.60
2018-01-13T22:23:25.675Z,24.70
2018-01-13T22:25:56.511Z,24.60
2018-01-13T22:28:26.963Z,24.60
2018-01-13T22:30:58.206Z,24.70
2018-01-13T22:33:29.444Z,24.60
2018-01-13T22:36:00.695Z,24.60
2018-01-13T22:38:32.252Z,24.60
2018-01-13T22:41:03.475Z,24.60
2018-01-13T22:43:34.106Z,24.60
2018-01-13T22:46:04.583Z,24.60
2018-01-13T22:48:35.331Z,24.60
2018-01-13T22:51:05.827Z,24.60
2018-01-13T22:53:36.274Z,24.60
2018-01-13T22:56:06.867Z,24.70
2018-01-13T22:58:38.078Z,24.70
2018-01-13T23:01:08.557Z,24.70
2018-01-13T23:03:39.016Z,24.70
2018-01-13T23:06:09.454Z,24.70
2018-01-13T23:08:40.258Z,24.70
2018-01-13T23:11:10.711Z,24.70
2018-01-13T23:13:41.479Z,24.70
2018-01-13T23:16:11.947Z,24.70
2018-01-13T23:18:42.407Z,24.70
2018-01-13T23:21:12.831Z,24.70
2018-01-13T23:23:43.294Z,24.70
2018-01-13T23:26:14.080Z,24.70
2018-01-13T23:28:45.480Z,24.60
2018-01-13T23:31:16.699Z,24.60
2018-01-13T23:33:47.195Z,24.60
2018-01-13T23:36:17.659Z,24.60
2018-01-13T23:38:48.567Z,24.60
2018-01-13T23:41:19.319Z,24.60
2018-01-13T23:43:49.931Z,24.60
2018-01-13T23:46:21.152Z,24.60
2018-01-13T23:48:51.606Z,24.60
2018-01-13T23:51:22.161Z,24.60
2018-01-13T23:53:52.646Z,24.60
2018-01-13T23:56:23.566Z,24.70
2018-01-13T23:58:54.027Z,24.70
